sensor_id;sensor_type;location;lat;lon;timestamp;P1;durP1;ratioP1;P2;durP2;ratioP2
81799;SDS011;71195;52.528;5.704;2024-02-21T00:02:06;5.07;;;1.63;;
81799;SDS011;71195;52.528;5.704;2024-02-21T00:04:35;4.43;;;0.80;;
81799;SDS011;71195;52.528;5.704;2024-02-21T00:07:07;4.53;;;0.73;;
81799;SDS011;71195;52.528;5.704;2024-02-21T00:09:36;4.85;;;0.60;;
81799;SDS011;71195;52.528;5.704;2024-02-21T00:12:06;5.72;;;1.08;;
81799;SDS011;71195;52.528;5.704;2024-02-21T00:14:35;5.28;;;0.90;;
81799;SDS011;71195;52.528;5.704;2024-02-21T00:17:05;3.65;;;0.80;;
81799;SDS011;71195;52.528;5.704;2024-02-21T00:19:34;4.97;;;0.63;;
81799;SDS011;71195;52.528;5.704;2024-02-21T00:22:03;12.98;;;1.02;;
81799;SDS011;71195;52.528;5.704;2024-02-21T00:24:35;5.68;;;0.65;;
81799;SDS011;71195;52.528;5.704;2024-02-21T00:27:04;9.93;;;1.23;;
81799;SDS011;71195;52.528;5.704;2024-02-21T00:29:33;4.80;;;0.90;;
81799;SDS011;71195;52.528;5.704;2024-02-21T00:32:03;9.55;;;1.23;;
81799;SDS011;71195;52.528;5.704;2024-02-21T00:34:32;5.80;;;0.75;;
81799;SDS011;71195;52.528;5.704;2024-02-21T00:37:01;4.05;;;1.27;;
81799;SDS011;71195;52.528;5.704;2024-02-21T00:39:31;7.35;;;1.42;;
81799;SDS011;71195;52.528;5.704;2024-02-21T00:42:03;9.75;;;0.80;;
81799;SDS011;71195;52.528;5.704;2024-02-21T00:44:33;3.55;;;1.05;;
81799;SDS011;71195;52.528;5.704;2024-02-21T00:47:02;7.78;;;1.08;;
81799;SDS011;71195;52.528;5.704;2024-02-21T00:49:31;6.32;;;0.60;;
81799;SDS011;71195;52.528;5.704;2024-02-21T00:52:00;6.28;;;1.75;;
81799;SDS011;71195;52.528;5.704;2024-02-21T00:54:29;7.03;;;1.20;;
81799;SDS011;71195;52.528;5.704;2024-02-21T00:56:58;4.30;;;1.20;;
81799;SDS011;71195;52.528;5.704;2024-02-21T00:59:30;6.63;;;1.42;;
81799;SDS011;71195;52.528;5.704;2024-02-21T01:01:59;8.18;;;0.90;;
81799;SDS011;71195;52.528;5.704;2024-02-21T01:04:29;6.57;;;1.13;;
81799;SDS011;71195;52.528;5.704;2024-02-21T01:06:58;6.07;;;1.08;;
81799;SDS011;71195;52.528;5.704;2024-02-21T01:09:27;6.85;;;1.30;;
81799;SDS011;71195;52.528;5.704;2024-02-21T01:11:56;3.17;;;0.90;;
81799;SDS011;71195;52.528;5.704;2024-02-21T01:14:25;8.57;;;1.48;;
81799;SDS011;71195;52.528;5.704;2024-02-21T01:16:57;4.32;;;0.77;;
81799;SDS011;71195;52.528;5.704;2024-02-21T01:19:27;3.38;;;0.63;;
81799;SDS011;71195;52.528;5.704;2024-02-21T01:21:56;3.17;;;0.90;;
81799;SDS011;71195;52.528;5.704;2024-02-21T01:24:25;3.78;;;0.95;;
81799;SDS011;71195;52.528;5.704;2024-02-21T01:26:54;8.65;;;1.20;;
81799;SDS011;71195;52.528;5.704;2024-02-21T01:29:23;9.18;;;1.98;;
81799;SDS011;71195;52.528;5.704;2024-02-21T01:31:52;6.18;;;0.70;;
81799;SDS011;71195;52.528;5.704;2024-02-21T01:34:24;7.57;;;1.10;;
81799;SDS011;71195;52.528;5.704;2024-02-21T01:36:53;9.07;;;1.60;;
81799;SDS011;71195;52.528;5.704;2024-02-21T01:39:22;6.57;;;1.23;;
81799;SDS011;71195;52.528;5.704;2024-02-21T01:41:51;4.63;;;0.93;;
81799;SDS011;71195;52.528;5.704;2024-02-21T01:44:20;11.82;;;1.58;;
81799;SDS011;71195;52.528;5.704;2024-02-21T01:46:50;3.55;;;1.38;;
81799;SDS011;71195;52.528;5.704;2024-02-21T01:49:20;10.50;;;1.58;;
81799;SDS011;71195;52.528;5.704;2024-02-21T01:51:53;8.32;;;1.63;;
81799;SDS011;71195;52.528;5.704;2024-02-21T01:54:22;4.60;;;1.10;;
81799;SDS011;71195;52.528;5.704;2024-02-21T01:56:54;8.35;;;0.95;;
81799;SDS011;71195;52.528;5.704;2024-02-21T01:59:23;4.00;;;0.77;;
81799;SDS011;71195;52.528;5.704;2024-02-21T02:01:52;5.32;;;1.08;;
81799;SDS011;71195;52.528;5.704;2024-02-21T02:04:26;9.07;;;0.95;;
81799;SDS011;71195;52.528;5.704;2024-02-21T02:06:55;8.93;;;0.90;;
81799;SDS011;71195;52.528;5.704;2024-02-21T02:09:26;8.43;;;0.93;;
81799;SDS011;71195;52.528;5.704;2024-02-21T02:11:55;8.18;;;1.27;;
81799;SDS011;71195;52.528;5.704;2024-02-21T02:14:24;8.05;;;0.95;;
81799;SDS011;71195;52.528;5.704;2024-02-21T02:16:54;8.88;;;1.23;;
81799;SDS011;71195;52.528;5.704;2024-02-21T02:19:25;6.05;;;0.90;;
81799;SDS011;71195;52.528;5.704;2024-02-21T02:21:56;11.75;;;1.20;;
81799;SDS011;71195;52.528;5.704;2024-02-21T02:24:33;5.72;;;1.08;;
81799;SDS011;71195;52.528;5.704;2024-02-21T02:27:02;13.20;;;1.20;;
81799;SDS011;71195;52.528;5.704;2024-02-21T02:29:32;7.47;;;0.80;;
81799;SDS011;71195;52.528;5.704;2024-02-21T02:32:01;9.32;;;1.20;;
81799;SDS011;71195;52.528;5.704;2024-02-21T02:34:30;5.28;;;0.93;;
81799;SDS011;71195;52.528;5.704;2024-02-21T02:36:59;4.68;;;0.70;;
81799;SDS011;71195;52.528;5.704;2024-02-21T02:39:28;6.88;;;1.20;;
81799;SDS011;71195;52.528;5.704;2024-02-21T02:42:01;8.40;;;1.50;;
81799;SDS011;71195;52.528;5.704;2024-02-21T02:44:30;7.13;;;0.95;;
81799;SDS011;71195;52.528;5.704;2024-02-21T02:46:59;3.05;;;0.60;;
81799;SDS011;71195;52.528;5.704;2024-02-21T02:49:29;8.85;;;1.20;;
81799;SDS011;71195;52.528;5.704;2024-02-21T02:51:58;6.25;;;1.15;;
81799;SDS011;71195;52.528;5.704;2024-02-21T02:54:27;9.20;;;1.20;;
81799;SDS011;71195;52.528;5.704;2024-02-21T02:56:56;11.13;;;1.55;;
81799;SDS011;71195;52.528;5.704;2024-02-21T02:59:28;7.03;;;1.25;;
81799;SDS011;71195;52.528;5.704;2024-02-21T03:01:58;7.93;;;1.27;;
81799;SDS011;71195;52.528;5.704;2024-02-21T03:04:27;8.88;;;1.27;;
81799;SDS011;71195;52.528;5.704;2024-02-21T03:06:56;4.82;;;0.98;;
81799;SDS011;71195;52.528;5.704;2024-02-21T03:09:25;9.60;;;2.08;;
81799;SDS011;71195;52.528;5.704;2024-02-21T03:11:54;7.32;;;1.45;;
81799;SDS011;71195;52.528;5.704;2024-02-21T03:14:30;5.90;;;1.27;;
81799;SDS011;71195;52.528;5.704;2024-02-21T03:17:00;7.32;;;1.35;;
81799;SDS011;71195;52.528;5.704;2024-02-21T03:19:30;5.97;;;1.27;;
81799;SDS011;71195;52.528;5.704;2024-02-21T03:21:59;6.68;;;1.67;;
81799;SDS011;71195;52.528;5.704;2024-02-21T03:24:28;5.35;;;1.00;;
81799;SDS011;71195;52.528;5.704;2024-02-21T03:27:00;7.82;;;1.33;;
81799;SDS011;71195;52.528;5.704;2024-02-21T03:29:31;8.48;;;1.20;;
81799;SDS011;71195;52.528;5.704;2024-02-21T03:32:00;6.50;;;1.23;;
81799;SDS011;71195;52.528;5.704;2024-02-21T03:34:30;11.90;;;2.08;;
81799;SDS011;71195;52.528;5.704;2024-02-21T03:36:59;6.68;;;1.35;;
81799;SDS011;71195;52.528;5.704;2024-02-21T03:39:30;6.82;;;0.75;;
81799;SDS011;71195;52.528;5.704;2024-02-21T03:42:00;4.70;;;0.93;;
81799;SDS011;71195;52.528;5.704;2024-02-21T03:44:33;7.25;;;1.17;;
81799;SDS011;71195;52.528;5.704;2024-02-21T03:47:02;8.98;;;1.20;;
81799;SDS011;71195;52.528;5.704;2024-02-21T03:49:31;10.85;;;1.42;;
81799;SDS011;71195;52.528;5.704;2024-02-21T03:52:00;6.53;;;1.05;;
81799;SDS011;71195;52.528;5.704;2024-02-21T03:54:30;5.68;;;0.60;;
81799;SDS011;71195;52.528;5.704;2024-02-21T03:56:59;8.18;;;1.10;;
81799;SDS011;71195;52.528;5.704;2024-02-21T03:59:28;8.95;;;1.30;;
81799;SDS011;71195;52.528;5.704;2024-02-21T04:02:00;6.93;;;1.98;;
81799;SDS011;71195;52.528;5.704;2024-02-21T04:04:29;8.10;;;1.95;;
81799;SDS011;71195;52.528;5.704;2024-02-21T04:06:58;10.63;;;1.35;;
81799;SDS011;71195;52.528;5.704;2024-02-21T04:09:32;11.50;;;1.83;;
81799;SDS011;71195;52.528;5.704;2024-02-21T04:12:01;11.07;;;1.38;;
81799;SDS011;71195;52.528;5.704;2024-02-21T04:14:31;13.18;;;1.52;;
81799;SDS011;71195;52.528;5.704;2024-02-21T04:17:03;8.30;;;1.48;;
81799;SDS011;71195;52.528;5.704;2024-02-21T04:19:32;7.43;;;1.08;;
81799;SDS011;71195;52.528;5.704;2024-02-21T04:22:02;6.55;;;0.60;;
81799;SDS011;71195;52.528;5.704;2024-02-21T04:24:31;5.35;;;1.25;;
81799;SDS011;71195;52.528;5.704;2024-02-21T04:27:00;7.63;;;1.27;;
81799;SDS011;71195;52.528;5.704;2024-02-21T04:29:29;8.73;;;1.45;;
81799;SDS011;71195;52.528;5.704;2024-02-21T04:31:59;5.57;;;1.02;;
81799;SDS011;71195;52.528;5.704;2024-02-21T04:34:30;7.55;;;1.50;;
81799;SDS011;71195;52.528;5.704;2024-02-21T04:36:59;7.18;;;0.85;;
81799;SDS011;71195;52.528;5.704;2024-02-21T04:39:29;13.32;;;1.73;;
81799;SDS011;71195;52.528;5.704;2024-02-21T04:41:58;8.90;;;2.35;;
81799;SDS011;71195;52.528;5.704;2024-02-21T04:44:27;11.32;;;1.40;;
81799;SDS011;71195;52.528;5.704;2024-02-21T04:46:56;13.15;;;1.55;;
81799;SDS011;71195;52.528;5.704;2024-02-21T04:49:25;3.17;;;0.73;;
81799;SDS011;71195;52.528;5.704;2024-02-21T04:51:57;5.30;;;1.27;;
81799;SDS011;71195;52.528;5.704;2024-02-21T04:54:26;7.13;;;1.83;;
81799;SDS011;71195;52.528;5.704;2024-02-21T04:56:55;4.85;;;1.27;;
81799;SDS011;71195;52.528;5.704;2024-02-21T04:59:24;8.40;;;1.55;;
81799;SDS011;71195;52.528;5.704;2024-02-21T05:01:53;9.05;;;1.90;;
81799;SDS011;71195;52.528;5.704;2024-02-21T05:04:22;15.68;;;1.58;;
81799;SDS011;71195;52.528;5.704;2024-02-21T05:06:52;9.15;;;1.38;;
81799;SDS011;71195;52.528;5.704;2024-02-21T05:09:23;11.63;;;1.52;;
81799;SDS011;71195;52.528;5.704;2024-02-21T05:11:52;7.75;;;1.08;;
81799;SDS011;71195;52.528;5.704;2024-02-21T05:14:22;4.97;;;1.27;;
81799;SDS011;71195;52.528;5.704;2024-02-21T05:16:52;5.68;;;1.23;;
81799;SDS011;71195;52.528;5.704;2024-02-21T05:19:21;5.80;;;1.10;;
81799;SDS011;71195;52.528;5.704;2024-02-21T05:21:50;4.43;;;1.00;;
81799;SDS011;71195;52.528;5.704;2024-02-21T05:24:19;5.72;;;1.10;;
81799;SDS011;71195;52.528;5.704;2024-02-21T05:26:51;8.68;;;1.90;;
81799;SDS011;71195;52.528;5.704;2024-02-21T05:29:21;12.77;;;2.03;;
81799;SDS011;71195;52.528;5.704;2024-02-21T05:31:55;7.22;;;2.05;;
81799;SDS011;71195;52.528;5.704;2024-02-21T05:34:25;6.68;;;2.00;;
81799;SDS011;71195;52.528;5.704;2024-02-21T05:36:54;4.57;;;1.77;;
81799;SDS011;71195;52.528;5.704;2024-02-21T05:39:25;10.95;;;2.35;;
81799;SDS011;71195;52.528;5.704;2024-02-21T05:41:57;6.43;;;1.83;;
81799;SDS011;71195;52.528;5.704;2024-02-21T05:44:26;10.32;;;2.50;;
81799;SDS011;71195;52.528;5.704;2024-02-21T05:46:56;15.38;;;2.72;;
81799;SDS011;71195;52.528;5.704;2024-02-21T05:49:25;10.57;;;2.40;;
81799;SDS011;71195;52.528;5.704;2024-02-21T05:51:54;8.35;;;3.15;;
81799;SDS011;71195;52.528;5.704;2024-02-21T05:54:23;8.50;;;2.70;;
81799;SDS011;71195;52.528;5.704;2024-02-21T05:56:52;5.38;;;2.70;;
81799;SDS011;71195;52.528;5.704;2024-02-21T05:59:25;8.85;;;2.60;;
81799;SDS011;71195;52.528;5.704;2024-02-21T06:01:55;8.60;;;3.22;;
81799;SDS011;71195;52.528;5.704;2024-02-21T06:04:24;10.70;;;2.72;;
81799;SDS011;71195;52.528;5.704;2024-02-21T06:06:53;9.18;;;2.83;;
81799;SDS011;71195;52.528;5.704;2024-02-21T06:09:22;9.45;;;3.55;;
81799;SDS011;71195;52.528;5.704;2024-02-21T06:11:52;9.30;;;3.05;;
81799;SDS011;71195;52.528;5.704;2024-02-21T06:14:21;8.45;;;2.70;;
81799;SDS011;71195;52.528;5.704;2024-02-21T06:16:52;8.00;;;2.95;;
81799;SDS011;71195;52.528;5.704;2024-02-21T06:19:21;8.15;;;3.95;;
81799;SDS011;71195;52.528;5.704;2024-02-21T06:21:51;6.90;;;3.33;;
81799;SDS011;71195;52.528;5.704;2024-02-21T06:24:20;10.85;;;3.60;;
81799;SDS011;71195;52.528;5.704;2024-02-21T06:26:49;6.70;;;3.55;;
81799;SDS011;71195;52.528;5.704;2024-02-21T06:29:18;8.30;;;4.10;;
81799;SDS011;71195;52.528;5.704;2024-02-21T06:31:47;10.20;;;3.47;;
81799;SDS011;71195;52.528;5.704;2024-02-21T06:34:19;9.55;;;3.75;;
81799;SDS011;71195;52.528;5.704;2024-02-21T06:36:49;9.02;;;4.07;;
81799;SDS011;71195;52.528;5.704;2024-02-21T06:39:18;12.05;;;4.47;;
81799;SDS011;71195;52.528;5.704;2024-02-21T06:41:49;9.25;;;3.42;;
81799;SDS011;71195;52.528;5.704;2024-02-21T06:44:19;8.65;;;3.85;;
81799;SDS011;71195;52.528;5.704;2024-02-21T06:46:49;8.15;;;4.07;;
81799;SDS011;71195;52.528;5.704;2024-02-21T06:49:21;7.50;;;3.55;;
81799;SDS011;71195;52.528;5.704;2024-02-21T06:51:50;8.82;;;3.15;;
81799;SDS011;71195;52.528;5.704;2024-02-21T06:54:19;7.95;;;4.00;;
81799;SDS011;71195;52.528;5.704;2024-02-21T06:56:49;7.53;;;4.10;;
81799;SDS011;71195;52.528;5.704;2024-02-21T06:59:18;12.10;;;3.95;;
81799;SDS011;71195;52.528;5.704;2024-02-21T07:01:48;9.60;;;4.28;;
81799;SDS011;71195;52.528;5.704;2024-02-21T07:04:17;15.20;;;4.72;;
81799;SDS011;71195;52.528;5.704;2024-02-21T07:06:49;8.25;;;3.53;;
81799;SDS011;71195;52.528;5.704;2024-02-21T07:09:18;10.85;;;5.07;;
81799;SDS011;71195;52.528;5.704;2024-02-21T07:11:47;13.23;;;4.38;;
81799;SDS011;71195;52.528;5.704;2024-02-21T07:14:17;7.45;;;3.80;;
81799;SDS011;71195;52.528;5.704;2024-02-21T07:16:47;11.10;;;4.25;;
81799;SDS011;71195;52.528;5.704;2024-02-21T07:19:16;8.82;;;4.55;;
81799;SDS011;71195;52.528;5.704;2024-02-21T07:21:48;11.48;;;4.32;;
81799;SDS011;71195;52.528;5.704;2024-02-21T07:24:17;16.00;;;4.57;;
81799;SDS011;71195;52.528;5.704;2024-02-21T07:26:46;10.20;;;4.03;;
81799;SDS011;71195;52.528;5.704;2024-02-21T07:29:15;11.05;;;5.07;;
81799;SDS011;71195;52.528;5.704;2024-02-21T07:31:44;13.30;;;5.43;;
81799;SDS011;71195;52.528;5.704;2024-02-21T07:34:14;11.75;;;5.78;;
81799;SDS011;71195;52.528;5.704;2024-02-21T07:36:43;6.90;;;3.80;;
81799;SDS011;71195;52.528;5.704;2024-02-21T07:39:15;9.38;;;3.72;;
81799;SDS011;71195;52.528;5.704;2024-02-21T07:41:44;10.95;;;4.30;;
81799;SDS011;71195;52.528;5.704;2024-02-21T07:44:14;10.60;;;3.67;;
81799;SDS011;71195;52.528;5.704;2024-02-21T07:46:44;9.63;;;4.95;;
81799;SDS011;71195;52.528;5.704;2024-02-21T07:49:13;8.77;;;3.95;;
81799;SDS011;71195;52.528;5.704;2024-02-21T07:51:42;9.10;;;3.80;;
81799;SDS011;71195;52.528;5.704;2024-02-21T07:54:11;10.25;;;4.13;;
81799;SDS011;71195;52.528;5.704;2024-02-21T07:56:43;8.50;;;3.75;;
81799;SDS011;71195;52.528;5.704;2024-02-21T07:59:13;9.05;;;4.40;;
81799;SDS011;71195;52.528;5.704;2024-02-21T08:01:42;9.38;;;4.85;;
81799;SDS011;71195;52.528;5.704;2024-02-21T08:04:11;8.93;;;3.88;;
81799;SDS011;71195;52.528;5.704;2024-02-21T08:06:41;16.33;;;5.18;;
81799;SDS011;71195;52.528;5.704;2024-02-21T08:09:10;10.40;;;4.75;;
81799;SDS011;71195;52.528;5.704;2024-02-21T08:11:43;8.95;;;4.32;;
81799;SDS011;71195;52.528;5.704;2024-02-21T08:14:13;9.27;;;5.05;;
81799;SDS011;71195;52.528;5.704;2024-02-21T08:16:42;7.82;;;4.60;;
81799;SDS011;71195;52.528;5.704;2024-02-21T08:19:11;8.32;;;4.82;;
81799;SDS011;71195;52.528;5.704;2024-02-21T08:21:41;8.90;;;4.78;;
81799;SDS011;71195;52.528;5.704;2024-02-21T08:24:12;9.38;;;4.90;;
81799;SDS011;71195;52.528;5.704;2024-02-21T08:26:44;12.82;;;5.88;;
81799;SDS011;71195;52.528;5.704;2024-02-21T08:29:13;12.32;;;6.43;;
81799;SDS011;71195;52.528;5.704;2024-02-21T08:31:42;12.10;;;5.90;;
81799;SDS011;71195;52.528;5.704;2024-02-21T08:34:11;14.00;;;6.07;;
81799;SDS011;71195;52.528;5.704;2024-02-21T08:36:40;15.27;;;6.03;;
81799;SDS011;71195;52.528;5.704;2024-02-21T08:39:10;16.05;;;6.80;;
81799;SDS011;71195;52.528;5.704;2024-02-21T08:41:44;14.00;;;6.22;;
81799;SDS011;71195;52.528;5.704;2024-02-21T08:44:14;13.50;;;6.35;;
81799;SDS011;71195;52.528;5.704;2024-02-21T08:46:43;11.00;;;5.75;;
81799;SDS011;71195;52.528;5.704;2024-02-21T08:49:12;14.13;;;6.13;;
81799;SDS011;71195;52.528;5.704;2024-02-21T08:51:42;15.45;;;5.88;;
81799;SDS011;71195;52.528;5.704;2024-02-21T08:54:12;14.25;;;6.63;;
81799;SDS011;71195;52.528;5.704;2024-02-21T08:56:41;16.27;;;6.35;;
81799;SDS011;71195;52.528;5.704;2024-02-21T08:59:13;16.13;;;6.53;;
81799;SDS011;71195;52.528;5.704;2024-02-21T09:01:42;14.75;;;6.28;;
81799;SDS011;71195;52.528;5.704;2024-02-21T09:04:12;17.52;;;7.07;;
81799;SDS011;71195;52.528;5.704;2024-02-21T09:06:41;12.40;;;6.88;;
81799;SDS011;71195;52.528;5.704;2024-02-21T09:09:12;13.32;;;6.88;;
81799;SDS011;71195;52.528;5.704;2024-02-21T09:11:41;13.88;;;6.45;;
81799;SDS011;71195;52.528;5.704;2024-02-21T09:14:13;14.32;;;7.05;;
81799;SDS011;71195;52.528;5.704;2024-02-21T09:16:42;18.50;;;7.20;;
81799;SDS011;71195;52.528;5.704;2024-02-21T09:19:11;17.98;;;7.25;;
81799;SDS011;71195;52.528;5.704;2024-02-21T09:21:40;14.10;;;7.47;;
81799;SDS011;71195;52.528;5.704;2024-02-21T09:24:09;12.65;;;6.78;;
81799;SDS011;71195;52.528;5.704;2024-02-21T09:26:39;14.40;;;7.18;;
81799;SDS011;71195;52.528;5.704;2024-02-21T09:29:08;16.67;;;7.03;;
81799;SDS011;71195;52.528;5.704;2024-02-21T09:31:39;12.93;;;6.75;;
81799;SDS011;71195;52.528;5.704;2024-02-21T09:34:08;10.02;;;5.90;;
81799;SDS011;71195;52.528;5.704;2024-02-21T09:36:38;12.15;;;5.43;;
81799;SDS011;71195;52.528;5.704;2024-02-21T09:39:07;10.57;;;5.15;;
81799;SDS011;71195;52.528;5.704;2024-02-21T09:41:41;11.20;;;5.35;;
81799;SDS011;71195;52.528;5.704;2024-02-21T09:44:17;11.07;;;5.95;;
81799;SDS011;71195;52.528;5.704;2024-02-21T09:46:56;13.02;;;6.13;;
81799;SDS011;71195;52.528;5.704;2024-02-21T09:49:31;13.63;;;5.30;;
81799;SDS011;71195;52.528;5.704;2024-02-21T09:52:04;17.95;;;5.82;;
81799;SDS011;71195;52.528;5.704;2024-02-21T09:54:34;11.05;;;4.35;;
81799;SDS011;71195;52.528;5.704;2024-02-21T09:57:04;7.65;;;4.15;;
81799;SDS011;71195;52.528;5.704;2024-02-21T09:59:34;11.70;;;5.75;;
81799;SDS011;71195;52.528;5.704;2024-02-21T10:02:06;10.48;;;5.18;;
81799;SDS011;71195;52.528;5.704;2024-02-21T10:04:37;10.88;;;6.18;;
81799;SDS011;71195;52.528;5.704;2024-02-21T10:07:07;12.52;;;5.10;;
81799;SDS011;71195;52.528;5.704;2024-02-21T10:09:38;11.77;;;4.72;;
81799;SDS011;71195;52.528;5.704;2024-02-21T10:12:08;14.60;;;5.25;;
81799;SDS011;71195;52.528;5.704;2024-02-21T10:14:37;11.50;;;5.68;;
81799;SDS011;71195;52.528;5.704;2024-02-21T10:17:14;15.60;;;6.47;;
81799;SDS011;71195;52.528;5.704;2024-02-21T10:19:46;9.85;;;4.93;;
81799;SDS011;71195;52.528;5.704;2024-02-21T10:22:17;10.57;;;4.93;;
81799;SDS011;71195;52.528;5.704;2024-02-21T10:24:46;13.63;;;7.15;;
81799;SDS011;71195;52.528;5.704;2024-02-21T10:27:15;12.50;;;5.25;;
81799;SDS011;71195;52.528;5.704;2024-02-21T10:29:48;10.57;;;4.18;;
81799;SDS011;71195;52.528;5.704;2024-02-21T10:32:21;7.88;;;4.35;;
81799;SDS011;71195;52.528;5.704;2024-02-21T10:35:00;12.52;;;4.45;;
81799;SDS011;71195;52.528;5.704;2024-02-21T10:37:30;9.55;;;4.28;;
81799;SDS011;71195;52.528;5.704;2024-02-21T10:40:00;10.52;;;4.13;;
81799;SDS011;71195;52.528;5.704;2024-02-21T10:42:31;9.63;;;3.25;;
81799;SDS011;71195;52.528;5.704;2024-02-21T10:45:03;8.98;;;3.80;;
81799;SDS011;71195;52.528;5.704;2024-02-21T10:47:38;9.20;;;4.22;;
81799;SDS011;71195;52.528;5.704;2024-02-21T10:50:10;7.35;;;3.00;;
81799;SDS011;71195;52.528;5.704;2024-02-21T10:52:45;7.60;;;3.05;;
81799;SDS011;71195;52.528;5.704;2024-02-21T10:55:21;8.35;;;3.78;;
81799;SDS011;71195;52.528;5.704;2024-02-21T10:58:02;8.32;;;3.88;;
81799;SDS011;71195;52.528;5.704;2024-02-21T11:00:31;8.20;;;4.30;;
81799;SDS011;71195;52.528;5.704;2024-02-21T11:03:05;11.30;;;4.20;;
81799;SDS011;71195;52.528;5.704;2024-02-21T11:05:34;6.10;;;3.38;;
81799;SDS011;71195;52.528;5.704;2024-02-21T11:08:05;8.80;;;2.70;;
81799;SDS011;71195;52.528;5.704;2024-02-21T11:10:36;5.43;;;2.95;;
81799;SDS011;71195;52.528;5.704;2024-02-21T11:13:06;5.28;;;2.70;;
81799;SDS011;71195;52.528;5.704;2024-02-21T11:15:36;7.90;;;3.28;;
81799;SDS011;71195;52.528;5.704;2024-02-21T11:18:08;4.95;;;2.78;;
81799;SDS011;71195;52.528;5.704;2024-02-21T11:20:38;8.45;;;2.75;;
81799;SDS011;71195;52.528;5.704;2024-02-21T11:23:07;7.47;;;2.53;;
81799;SDS011;71195;52.528;5.704;2024-02-21T11:25:36;6.22;;;2.80;;
81799;SDS011;71195;52.528;5.704;2024-02-21T11:28:05;6.80;;;2.47;;
81799;SDS011;71195;52.528;5.704;2024-02-21T11:30:35;5.20;;;2.42;;
81799;SDS011;71195;52.528;5.704;2024-02-21T11:33:08;5.93;;;1.80;;
81799;SDS011;71195;52.528;5.704;2024-02-21T11:35:37;7.72;;;2.22;;
81799;SDS011;71195;52.528;5.704;2024-02-21T11:38:10;7.75;;;2.78;;
81799;SDS011;71195;52.528;5.704;2024-02-21T11:40:43;8.40;;;3.13;;
81799;SDS011;71195;52.528;5.704;2024-02-21T11:43:13;4.82;;;2.10;;
81799;SDS011;71195;52.528;5.704;2024-02-21T11:45:43;4.10;;;1.83;;
81799;SDS011;71195;52.528;5.704;2024-02-21T11:48:15;5.63;;;2.08;;
81799;SDS011;71195;52.528;5.704;2024-02-21T11:50:52;3.42;;;1.65;;
81799;SDS011;71195;52.528;5.704;2024-02-21T11:53:22;5.55;;;1.95;;
81799;SDS011;71195;52.528;5.704;2024-02-21T11:55:56;3.03;;;1.58;;
81799;SDS011;71195;52.528;5.704;2024-02-21T11:58:25;3.50;;;1.95;;
81799;SDS011;71195;52.528;5.704;2024-02-21T12:00:56;3.85;;;1.70;;
81799;SDS011;71195;52.528;5.704;2024-02-21T12:03:31;8.13;;;2.05;;
81799;SDS011;71195;52.528;5.704;2024-02-21T12:06:01;3.75;;;1.58;;
81799;SDS011;71195;52.528;5.704;2024-02-21T12:08:40;5.63;;;1.52;;
81799;SDS011;71195;52.528;5.704;2024-02-21T12:11:19;3.92;;;2.08;;
81799;SDS011;71195;52.528;5.704;2024-02-21T12:13:58;4.40;;;1.73;;
81799;SDS011;71195;52.528;5.704;2024-02-21T12:16:29;4.45;;;1.52;;
81799;SDS011;71195;52.528;5.704;2024-02-21T12:19:01;5.93;;;2.58;;
81799;SDS011;71195;52.528;5.704;2024-02-21T12:21:31;4.70;;;2.33;;
81799;SDS011;71195;52.528;5.704;2024-02-21T12:24:11;5.30;;;2.08;;
81799;SDS011;71195;52.528;5.704;2024-02-21T12:26:41;4.35;;;2.22;;
81799;SDS011;71195;52.528;5.704;2024-02-21T12:29:10;5.95;;;2.03;;
81799;SDS011;71195;52.528;5.704;2024-02-21T12:31:39;3.45;;;1.98;;
81799;SDS011;71195;52.528;5.704;2024-02-21T12:34:11;4.28;;;2.60;;
81799;SDS011;71195;52.528;5.704;2024-02-21T12:36:40;4.43;;;2.05;;
81799;SDS011;71195;52.528;5.704;2024-02-21T12:39:10;5.93;;;2.35;;
81799;SDS011;71195;52.528;5.704;2024-02-21T12:41:40;3.58;;;1.92;;
81799;SDS011;71195;52.528;5.704;2024-02-21T12:44:09;4.38;;;2.17;;
81799;SDS011;71195;52.528;5.704;2024-02-21T12:46:39;4.72;;;2.28;;
81799;SDS011;71195;52.528;5.704;2024-02-21T12:49:11;3.83;;;2.55;;
81799;SDS011;71195;52.528;5.704;2024-02-21T12:51:41;5.15;;;2.70;;
81799;SDS011;71195;52.528;5.704;2024-02-21T12:54:12;4.78;;;2.92;;
81799;SDS011;71195;52.528;5.704;2024-02-21T12:56:41;5.85;;;2.92;;
81799;SDS011;71195;52.528;5.704;2024-02-21T12:59:10;5.22;;;2.35;;
81799;SDS011;71195;52.528;5.704;2024-02-21T13:01:39;4.63;;;2.58;;
81799;SDS011;71195;52.528;5.704;2024-02-21T13:04:11;6.78;;;2.88;;
81799;SDS011;71195;52.528;5.704;2024-02-21T13:06:41;4.80;;;2.20;;
81799;SDS011;71195;52.528;5.704;2024-02-21T13:09:10;8.23;;;2.20;;
81799;SDS011;71195;52.528;5.704;2024-02-21T13:11:41;6.10;;;2.47;;
81799;SDS011;71195;52.528;5.704;2024-02-21T13:14:11;4.00;;;2.50;;
81799;SDS011;71195;52.528;5.704;2024-02-21T13:16:40;5.82;;;2.67;;
81799;SDS011;71195;52.528;5.704;2024-02-21T13:19:12;5.30;;;2.65;;
81799;SDS011;71195;52.528;5.704;2024-02-21T13:21:43;5.28;;;2.35;;
81799;SDS011;71195;52.528;5.704;2024-02-21T13:24:12;5.07;;;2.47;;
81799;SDS011;71195;52.528;5.704;2024-02-21T13:26:41;6.22;;;3.03;;
81799;SDS011;71195;52.528;5.704;2024-02-21T13:29:10;7.38;;;2.83;;
81799;SDS011;71195;52.528;5.704;2024-02-21T13:31:39;11.10;;;3.17;;
81799;SDS011;71195;52.528;5.704;2024-02-21T13:34:08;5.72;;;2.80;;
81799;SDS011;71195;52.528;5.704;2024-02-21T13:36:40;5.55;;;2.75;;
81799;SDS011;71195;52.528;5.704;2024-02-21T13:39:09;5.07;;;2.97;;
81799;SDS011;71195;52.528;5.704;2024-02-21T13:41:41;5.03;;;2.30;;
81799;SDS011;71195;52.528;5.704;2024-02-21T13:44:10;4.38;;;2.63;;
81799;SDS011;71195;52.528;5.704;2024-02-21T13:46:39;5.40;;;3.33;;
81799;SDS011;71195;52.528;5.704;2024-02-21T13:49:09;4.63;;;1.80;;
81799;SDS011;71195;52.528;5.704;2024-02-21T13:51:41;4.25;;;2.33;;
81799;SDS011;71195;52.528;5.704;2024-02-21T13:54:10;5.28;;;2.53;;
81799;SDS011;71195;52.528;5.704;2024-02-21T13:56:42;9.10;;;2.53;;
81799;SDS011;71195;52.528;5.704;2024-02-21T13:59:11;6.22;;;1.80;;
81799;SDS011;71195;52.528;5.704;2024-02-21T14:01:41;3.85;;;2.22;;
81799;SDS011;71195;52.528;5.704;2024-02-21T14:04:13;6.90;;;2.78;;
81799;SDS011;71195;52.528;5.704;2024-02-21T14:06:43;9.77;;;2.67;;
81799;SDS011;71195;52.528;5.704;2024-02-21T14:09:12;4.10;;;2.10;;
81799;SDS011;71195;52.528;5.704;2024-02-21T14:11:41;6.60;;;2.15;;
81799;SDS011;71195;52.528;5.704;2024-02-21T14:14:11;5.53;;;2.15;;
81799;SDS011;71195;52.528;5.704;2024-02-21T14:16:40;4.05;;;1.95;;
81799;SDS011;71195;52.528;5.704;2024-02-21T14:19:09;6.65;;;2.58;;
81799;SDS011;71195;52.528;5.704;2024-02-21T14:21:41;3.65;;;1.92;;
81799;SDS011;71195;52.528;5.704;2024-02-21T14:24:11;4.65;;;1.77;;
81799;SDS011;71195;52.528;5.704;2024-02-21T14:26:40;4.10;;;2.95;;
81799;SDS011;71195;52.528;5.704;2024-02-21T14:29:09;5.75;;;2.45;;
81799;SDS011;71195;52.528;5.704;2024-02-21T14:31:39;3.83;;;2.20;;
81799;SDS011;71195;52.528;5.704;2024-02-21T14:34:08;6.60;;;2.25;;
81799;SDS011;71195;52.528;5.704;2024-02-21T14:36:37;5.55;;;2.70;;
81799;SDS011;71195;52.528;5.704;2024-02-21T14:39:09;3.53;;;2.05;;
81799;SDS011;71195;52.528;5.704;2024-02-21T14:41:38;6.60;;;2.35;;
81799;SDS011;71195;52.528;5.704;2024-02-21T14:44:09;2.97;;;1.88;;
81799;SDS011;71195;52.528;5.704;2024-02-21T14:46:39;5.45;;;2.00;;
81799;SDS011;71195;52.528;5.704;2024-02-21T14:49:09;6.30;;;2.15;;
81799;SDS011;71195;52.528;5.704;2024-02-21T14:51:39;3.97;;;1.58;;
81799;SDS011;71195;52.528;5.704;2024-02-21T14:54:11;6.68;;;1.90;;
81799;SDS011;71195;52.528;5.704;2024-02-21T14:56:40;7.82;;;2.05;;
81799;SDS011;71195;52.528;5.704;2024-02-21T14:59:09;7.60;;;3.28;;
81799;SDS011;71195;52.528;5.704;2024-02-21T15:01:38;6.35;;;2.05;;